createdAt,value
2022-08-24T00:01:38.622Z,18.43
2022-08-24T00:04:36.113Z,18.41
2022-08-24T00:07:34.453Z,18.39
2022-08-24T00:10:31.924Z,18.36
2022-08-24T00:13:29.509Z,18.36
2022-08-24T00:16:30.215Z,18.36
2022-08-24T00:19:27.732Z,18.36
2022-08-24T00:22:25.386Z,18.37
2022-08-24T00:25:22.847Z,18.38
2022-08-24T00:28:20.359Z,18.39
2022-08-24T00:31:17.919Z,18.38
2022-08-24T00:34:17.948Z,18.39
2022-08-24T00:37:15.681Z,18.38
2022-08-24T00:40:13.238Z,18.40
2022-08-24T00:43:10.826Z,18.40
2022-08-24T00:46:08.369Z,18.41
2022-08-24T00:49:06.015Z,18.42
2022-08-24T00:52:04.761Z,18.43
2022-08-24T00:55:02.230Z,18.46
2022-08-24T00:57:59.714Z,18.46
2022-08-24T01:00:57.235Z,18.48
2022-08-24T01:03:57.012Z,18.49
2022-08-24T01:06:54.739Z,18.50
2022-08-24T01:09:52.224Z,18.52
2022-08-24T01:13:00.502Z,18.52
2022-08-24T01:15:58.828Z,18.52
2022-08-24T01:18:56.329Z,18.53
2022-08-24T01:21:54.364Z,18.54
2022-08-24T01:24:52.753Z,18.55
2022-08-24T01:27:50.251Z,18.54
2022-08-24T01:30:47.797Z,18.56
2022-08-24T01:33:45.269Z,18.56
2022-08-24T01:36:42.746Z,18.57
2022-08-24T01:39:40.317Z,18.58
2022-08-24T01:42:37.808Z,18.59
2022-08-24T01:45:35.293Z,18.60
2022-08-24T01:48:32.783Z,18.60
2022-08-24T01:51:30.313Z,18.61
2022-08-24T01:54:27.818Z,18.61
2022-08-24T01:57:25.305Z,18.62
2022-08-24T02:00:22.796Z,18.62
2022-08-24T02:03:20.667Z,18.63
2022-08-24T02:06:27.211Z,18.63
2022-08-24T02:09:24.773Z,18.63
2022-08-24T02:12:27.915Z,18.63
2022-08-24T02:15:27.586Z,18.63
2022-08-24T02:18:25.070Z,18.63
2022-08-24T02:21:22.545Z,18.63
2022-08-24T02:24:20.009Z,18.64
2022-08-24T02:27:17.490Z,18.64
2022-08-24T02:30:15.294Z,18.65
2022-08-24T02:33:14.646Z,18.65
2022-08-24T02:36:25.879Z,18.65
2022-08-24T02:39:24.129Z,18.65
2022-08-24T02:42:21.592Z,18.65
2022-08-24T02:45:19.132Z,18.66
2022-08-24T02:48:16.615Z,18.66
2022-08-24T02:51:14.104Z,18.67
2022-08-24T02:54:11.574Z,18.67
2022-08-24T02:57:09.055Z,18.68
2022-08-24T03:00:10.087Z,18.67
2022-08-24T03:03:08.352Z,18.67
2022-08-24T03:06:05.864Z,18.67
2022-08-24T03:09:03.548Z,18.68
2022-08-24T03:12:01.031Z,18.68
2022-08-24T03:14:58.461Z,18.69
2022-08-24T03:17:55.927Z,18.71
2022-08-24T03:20:53.389Z,18.72
2022-08-24T03:23:50.855Z,18.73
2022-08-24T03:26:48.320Z,18.73
2022-08-24T03:29:45.780Z,18.74
2022-08-24T03:32:43.803Z,18.74
2022-08-24T03:35:41.302Z,18.75
2022-08-24T03:38:38.778Z,18.76
2022-08-24T03:41:36.773Z,18.75
2022-08-24T03:44:34.377Z,18.77
2022-08-24T03:47:31.862Z,18.77
2022-08-24T03:50:29.341Z,18.76
2022-08-24T03:53:26.832Z,18.76
2022-08-24T03:56:24.297Z,18.74
2022-08-24T03:59:22.059Z,18.73
2022-08-24T04:02:19.572Z,18.71
2022-08-24T04:05:17.099Z,18.70
2022-08-24T04:08:15.198Z,18.69
2022-08-24T04:11:15.406Z,18.68
2022-08-24T04:14:23.620Z,18.66
2022-08-24T04:17:25.168Z,18.64
2022-08-24T04:20:24.072Z,18.60
2022-08-24T04:23:21.546Z,18.57
2022-08-24T04:26:43.401Z,18.56
2022-08-24T04:29:43.596Z,18.54
2022-08-24T04:32:41.165Z,18.53
2022-08-24T04:35:38.622Z,18.54
2022-08-24T04:38:36.103Z,18.56
2022-08-24T04:41:33.619Z,18.58
2022-08-24T04:44:32.456Z,18.58
2022-08-24T04:47:29.984Z,18.58
2022-08-24T04:50:27.448Z,18.58
2022-08-24T04:53:24.943Z,18.58
2022-08-24T04:56:23.379Z,18.61
2022-08-24T04:59:20.850Z,18.65
2022-08-24T05:02:18.406Z,18.71
2022-08-24T05:05:15.933Z,18.76
2022-08-24T05:08:14.427Z,18.83
2022-08-24T05:11:12.206Z,18.90
2022-08-24T05:14:11.132Z,18.98
2022-08-24T05:17:09.337Z,19.07
2022-08-24T05:20:09.407Z,19.15
2022-08-24T05:23:07.100Z,19.24
2022-08-24T05:26:06.156Z,19.31
2022-08-24T05:29:03.691Z,19.39
2022-08-24T05:32:02.255Z,19.48
2022-08-24T05:35:00.534Z,19.55
2022-08-24T05:37:59.392Z,19.60
2022-08-24T05:40:56.887Z,19.64
2022-08-24T05:43:54.385Z,19.65
2022-08-24T05:46:51.883Z,19.66
2022-08-24T05:49:52.191Z,19.67
2022-08-24T05:52:49.692Z,19.71
2022-08-24T05:55:47.185Z,19.77
2022-08-24T05:58:44.639Z,19.83
2022-08-24T06:01:45.152Z,19.91
2022-08-24T06:04:43.134Z,20.00
2022-08-24T06:07:40.769Z,20.09
2022-08-24T06:10:38.398Z,20.17
2022-08-24T06:13:35.906Z,20.29
2022-08-24T06:16:33.591Z,20.46
2022-08-24T06:19:31.097Z,20.67
2022-08-24T06:22:28.572Z,20.83
2022-08-24T06:25:44.033Z,20.97
2022-08-24T06:28:41.506Z,21.08
2022-08-24T06:31:40.091Z,21.17
2022-08-24T06:34:39.866Z,21.26
2022-08-24T06:37:37.327Z,21.32
2022-08-24T06:40:35.576Z,21.39
2022-08-24T06:43:33.890Z,21.46
2022-08-24T06:46:33.065Z,21.55
2022-08-24T06:49:30.805Z,21.63
2022-08-24T06:52:28.286Z,21.67
2022-08-24T06:55:25.782Z,21.66
2022-08-24T06:58:23.264Z,21.60
2022-08-24T07:01:20.773Z,21.52
2022-08-24T07:04:19.165Z,21.49
2022-08-24T07:07:16.666Z,21.50
2022-08-24T07:10:14.117Z,21.53
2022-08-24T07:13:12.372Z,21.59
2022-08-24T07:16:10.922Z,21.64
2022-08-24T07:19:08.449Z,21.70
2022-08-24T07:22:05.945Z,21.82
2022-08-24T07:25:03.411Z,21.98
2022-08-24T07:28:00.910Z,22.11
2022-08-24T07:30:58.400Z,22.22
2022-08-24T07:33:55.915Z,22.30
2022-08-24T07:36:54.914Z,22.43
2022-08-24T07:39:52.441Z,22.69
2022-08-24T07:42:49.987Z,22.91
2022-08-24T07:45:47.458Z,23.00
2022-08-24T07:48:45.354Z,23.09
2022-08-24T07:51:46.747Z,23.14
2022-08-24T07:54:44.747Z,23.20
2022-08-24T07:57:42.231Z,23.25
2022-08-24T08:00:39.688Z,23.36
2022-08-24T08:03:37.372Z,23.49
2022-08-24T08:06:34.858Z,23.75
2022-08-24T08:09:32.351Z,24.13
2022-08-24T08:12:29.854Z,24.40
2022-08-24T08:15:28.019Z,24.75
2022-08-24T08:18:26.299Z,25.10
2022-08-24T08:21:41.422Z,25.36
2022-08-24T08:24:38.889Z,25.76
2022-08-24T08:27:36.497Z,26.18
2022-08-24T08:30:34.046Z,26.70
2022-08-24T08:33:32.040Z,27.08
2022-08-24T08:36:29.499Z,27.45
2022-08-24T08:39:27.031Z,27.67
2022-08-24T08:42:24.515Z,28.00
2022-08-24T08:45:22.015Z,28.11
2022-08-24T08:48:20.544Z,27.95
2022-08-24T08:51:18.107Z,27.91
2022-08-24T08:54:15.610Z,28.02
2022-08-24T08:57:16.729Z,28.23
2022-08-24T09:00:15.886Z,28.70
2022-08-24T09:03:14.284Z,28.80
2022-08-24T09:06:11.768Z,29.01
2022-08-24T09:09:09.340Z,29.10
2022-08-24T09:12:07.215Z,29.35
2022-08-24T09:15:04.701Z,29.76
2022-08-24T09:18:02.283Z,30.12
2022-08-24T09:20:59.928Z,30.39
2022-08-24T09:24:00.492Z,30.74
2022-08-24T09:26:57.985Z,30.95
2022-08-24T09:29:55.459Z,31.01
2022-08-24T09:32:55.933Z,31.25
2022-08-24T09:35:54.120Z,31.60
2022-08-24T09:38:52.322Z,31.73
2022-08-24T09:41:50.430Z,31.83
2022-08-24T09:44:47.926Z,31.99
2022-08-24T09:47:45.404Z,32.40
2022-08-24T09:50:42.887Z,32.55
2022-08-24T09:53:40.832Z,32.51
2022-08-24T09:56:38.301Z,32.56
2022-08-24T09:59:35.806Z,32.63
2022-08-24T10:02:33.332Z,32.97
2022-08-24T10:05:36.363Z,33.07
2022-08-24T10:08:34.908Z,32.84
2022-08-24T10:11:32.395Z,32.42
2022-08-24T10:14:29.901Z,32.42
2022-08-24T10:17:27.397Z,32.32
2022-08-24T10:20:25.399Z,32.10
2022-08-24T10:23:22.865Z,31.94
2022-08-24T10:26:21.152Z,31.83
2022-08-24T10:29:18.637Z,31.96
2022-08-24T10:32:16.112Z,31.89
2022-08-24T10:35:13.573Z,31.97
2022-08-24T10:38:28.568Z,32.35
2022-08-24T10:41:26.059Z,32.86
2022-08-24T10:44:23.873Z,33.28
2022-08-24T10:47:21.336Z,33.24
2022-08-24T10:50:18.800Z,32.74
2022-08-24T10:53:17.507Z,32.21
2022-08-24T10:56:14.978Z,32.07
2022-08-24T10:59:12.461Z,31.98
2022-08-24T11:02:13.048Z,32.10
2022-08-24T11:05:10.822Z,32.14
2022-08-24T11:08:08.295Z,32.33
2022-08-24T11:11:06.891Z,32.59
2022-08-24T11:14:04.380Z,33.03
2022-08-24T11:17:04.442Z,33.31
2022-08-24T11:20:01.941Z,33.38
2022-08-24T11:22:59.887Z,33.38
2022-08-24T11:25:57.901Z,33.28
2022-08-24T11:28:55.405Z,32.72
2022-08-24T11:31:52.970Z,32.22
2022-08-24T11:34:50.507Z,31.97
2022-08-24T11:37:47.987Z,32.12
2022-08-24T11:40:45.497Z,32.03
2022-08-24T11:43:43.294Z,31.74
2022-08-24T11:46:40.935Z,31.64
2022-08-24T11:49:38.461Z,31.77
2022-08-24T11:52:35.950Z,31.58
2022-08-24T11:55:46.654Z,31.11
2022-08-24T11:58:44.583Z,30.70
2022-08-24T12:01:42.904Z,30.48
2022-08-24T12:04:42.337Z,30.24
2022-08-24T12:07:39.811Z,30.15
2022-08-24T12:10:37.301Z,30.09
2022-08-24T12:13:34.802Z,29.85
2022-08-24T12:16:32.979Z,29.94
2022-08-24T12:19:30.804Z,30.52
2022-08-24T12:22:28.290Z,31.00
2022-08-24T12:25:43.388Z,30.98
2022-08-24T12:28:40.891Z,30.74
2022-08-24T12:31:38.431Z,30.67
2022-08-24T12:34:35.955Z,30.95
2022-08-24T12:37:33.415Z,31.22
2022-08-24T12:40:30.920Z,31.37
2022-08-24T12:43:28.614Z,31.42
2022-08-24T12:46:26.149Z,31.45
2022-08-24T12:49:23.657Z,31.57
2022-08-24T12:52:21.159Z,31.64
2022-08-24T12:55:19.356Z,31.65
2022-08-24T12:58:31.351Z,31.78
2022-08-24T13:01:34.087Z,31.87
2022-08-24T13:04:31.664Z,31.74
2022-08-24T13:07:29.849Z,31.55
2022-08-24T13:10:27.345Z,31.28
2022-08-24T13:13:24.812Z,30.97
2022-08-24T13:16:22.406Z,30.92
2022-08-24T13:19:19.919Z,31.09
2022-08-24T13:22:17.445Z,31.25
2022-08-24T13:25:14.930Z,31.44
2022-08-24T13:28:12.533Z,31.58
2022-08-24T13:31:10.354Z,31.63
2022-08-24T13:34:09.175Z,31.70
2022-08-24T13:37:07.170Z,31.77
2022-08-24T13:40:08.205Z,31.93
2022-08-24T13:43:08.313Z,32.03
2022-08-24T13:46:08.881Z,32.08
2022-08-24T13:49:10.216Z,32.19
2022-08-24T13:52:08.076Z,32.29
2022-08-24T13:55:06.011Z,32.03
2022-08-24T13:58:05.750Z,31.89
2022-08-24T14:01:03.943Z,31.97
2022-08-24T14:04:02.346Z,31.98
2022-08-24T14:06:59.900Z,31.98
2022-08-24T14:09:57.384Z,31.87
2022-08-24T14:12:55.290Z,31.93
2022-08-24T14:16:12.877Z,32.03
2022-08-24T14:19:10.405Z,32.18
2022-08-24T14:22:07.958Z,32.33
2022-08-24T14:25:05.557Z,32.50
2022-08-24T14:28:04.568Z,32.60
2022-08-24T14:31:02.214Z,32.43
2022-08-24T14:33:59.731Z,32.11
2022-08-24T14:36:57.367Z,31.68
2022-08-24T14:39:55.343Z,31.29
2022-08-24T14:42:52.874Z,31.08
2022-08-24T14:45:50.777Z,30.88
2022-08-24T14:48:48.366Z,30.59
2022-08-24T14:51:45.857Z,30.38
2022-08-24T14:54:43.315Z,30.20
2022-08-24T14:57:41.451Z,29.98
2022-08-24T15:00:38.908Z,29.90
2022-08-24T15:03:36.371Z,29.96
2022-08-24T15:06:33.964Z,30.04
2022-08-24T15:09:35.457Z,30.02
2022-08-24T15:12:32.958Z,29.97
2022-08-24T15:15:31.859Z,30.05
2022-08-24T15:18:36.676Z,30.18
2022-08-24T15:21:34.630Z,30.28
2022-08-24T15:24:32.115Z,30.26
2022-08-24T15:27:29.586Z,30.18
2022-08-24T15:30:27.398Z,29.97
2022-08-24T15:33:24.915Z,29.95
2022-08-24T15:36:22.382Z,29.91
2022-08-24T15:39:19.858Z,29.83
2022-08-24T15:42:17.722Z,29.82
2022-08-24T15:45:15.183Z,29.78
2022-08-24T15:48:12.685Z,29.68
2022-08-24T15:51:10.154Z,29.51
2022-08-24T15:54:07.767Z,29.40
2022-08-24T15:57:05.234Z,29.27
2022-08-24T16:00:02.705Z,29.16
2022-08-24T16:03:00.202Z,29.02
2022-08-24T16:05:57.995Z,28.93
2022-08-24T16:08:56.549Z,28.88
2022-08-24T16:11:54.008Z,28.78
2022-08-24T16:14:52.779Z,28.67
2022-08-24T16:17:51.514Z,28.53
2022-08-24T16:20:49.619Z,28.40
2022-08-24T16:23:47.103Z,28.26
2022-08-24T16:26:44.576Z,28.14
2022-08-24T16:29:42.918Z,28.03
2022-08-24T16:32:50.831Z,27.87
2022-08-24T16:35:51.199Z,27.69
2022-08-24T16:38:49.178Z,27.52
2022-08-24T16:41:47.274Z,27.36
2022-08-24T16:44:44.764Z,27.24
2022-08-24T16:47:42.241Z,27.13
2022-08-24T16:50:39.843Z,27.01
2022-08-24T16:53:37.322Z,26.91
2022-08-24T16:56:34.801Z,26.79
2022-08-24T16:59:32.651Z,26.66
2022-08-24T17:02:30.172Z,26.53
2022-08-24T17:05:27.690Z,26.40
2022-08-24T17:08:25.708Z,26.29
2022-08-24T17:11:23.312Z,26.18
2022-08-24T17:14:20.818Z,26.08
2022-08-24T17:17:18.430Z,26.00
2022-08-24T17:20:19.090Z,25.91
2022-08-24T17:23:16.825Z,25.83
2022-08-24T17:26:20.659Z,25.74
2022-08-24T17:29:20.102Z,25.64
2022-08-24T17:32:17.562Z,25.57
2022-08-24T17:35:15.361Z,25.46
2022-08-24T17:38:12.828Z,25.38
2022-08-24T17:41:10.661Z,25.29
2022-08-24T17:44:11.914Z,25.20
2022-08-24T17:47:09.402Z,25.09
2022-08-24T17:50:10.262Z,25.00
2022-08-24T17:53:09.031Z,24.91
2022-08-24T17:56:06.776Z,24.83
2022-08-24T17:59:23.934Z,24.75
2022-08-24T18:02:21.415Z,24.66
2022-08-24T18:05:18.884Z,24.58
2022-08-24T18:08:16.379Z,24.54
2022-08-24T18:11:14.788Z,24.49
2022-08-24T18:14:12.272Z,24.44
2022-08-24T18:17:11.532Z,24.38
2022-08-24T18:20:09.308Z,24.32
2022-08-24T18:23:11.641Z,24.26
2022-08-24T18:26:09.620Z,24.18
2022-08-24T18:29:07.115Z,24.12
2022-08-24T18:32:04.672Z,24.04
2022-08-24T18:35:02.250Z,23.99
2022-08-24T18:37:59.723Z,23.96
2022-08-24T18:40:57.184Z,23.94
2022-08-24T18:43:55.470Z,23.90
2022-08-24T18:46:52.971Z,23.85
2022-08-24T18:49:50.453Z,23.81
2022-08-24T18:52:47.935Z,23.78
2022-08-24T18:55:47.332Z,23.73
2022-08-24T18:58:44.827Z,23.69
2022-08-24T19:01:56.295Z,23.65
2022-08-24T19:04:54.063Z,23.61
2022-08-24T19:07:51.547Z,23.58
2022-08-24T19:10:49.308Z,23.54
2022-08-24T19:13:47.172Z,23.50
2022-08-24T19:16:44.932Z,23.45
2022-08-24T19:19:45.852Z,23.42
2022-08-24T19:22:43.723Z,23.41
2022-08-24T19:25:41.411Z,23.39
2022-08-24T19:28:40.562Z,23.38
2022-08-24T19:31:38.855Z,23.34
2022-08-24T19:34:36.821Z,23.31
2022-08-24T19:37:35.890Z,23.27
2022-08-24T19:40:33.738Z,23.24
2022-08-24T19:43:32.426Z,23.22
2022-08-24T19:46:30.336Z,23.20
2022-08-24T19:49:28.394Z,23.17
2022-08-24T19:52:26.138Z,23.14
2022-08-24T19:55:23.841Z,23.12
2022-08-24T19:58:23.616Z,23.10
2022-08-24T20:01:21.704Z,23.08
2022-08-24T20:04:19.544Z,23.06
2022-08-24T20:07:17.081Z,23.04
2022-08-24T20:10:14.558Z,23.02
2022-08-24T20:13:12.030Z,23.00
2022-08-24T20:16:10.707Z,22.98
2022-08-24T20:19:08.256Z,22.97
2022-08-24T20:22:13.442Z,22.96
2022-08-24T20:25:11.412Z,22.98
2022-08-24T20:28:28.919Z,23.00
2022-08-24T20:31:28.466Z,22.99
2022-08-24T20:34:26.493Z,22.98
2022-08-24T20:37:24.569Z,22.96
2022-08-24T20:40:22.244Z,22.94
2022-08-24T20:43:19.793Z,22.93
2022-08-24T20:46:17.298Z,22.91
2022-08-24T20:49:15.312Z,22.88
2022-08-24T20:52:13.194Z,22.86
2022-08-24T20:55:10.652Z,22.85
2022-08-24T20:58:08.133Z,22.83
2022-08-24T21:01:05.862Z,22.82
2022-08-24T21:04:05.508Z,22.81
2022-08-24T21:07:03.274Z,22.78
2022-08-24T21:10:00.771Z,22.77
2022-08-24T21:12:59.506Z,22.74
2022-08-24T21:15:57.056Z,22.73
2022-08-24T21:18:54.569Z,22.72
2022-08-24T21:21:52.417Z,22.69
2022-08-24T21:24:50.006Z,22.66
2022-08-24T21:27:47.522Z,22.64
2022-08-24T21:30:44.976Z,22.62
2022-08-24T21:34:00.512Z,22.59
2022-08-24T21:36:58.327Z,22.56
2022-08-24T21:39:57.486Z,22.54
2022-08-24T21:42:54.977Z,22.50
2022-08-24T21:45:52.461Z,22.47
2022-08-24T21:48:49.939Z,22.45
2022-08-24T21:51:47.425Z,22.45
2022-08-24T21:54:45.173Z,22.45
2022-08-24T21:57:42.643Z,22.45
2022-08-24T22:00:40.117Z,22.45
2022-08-24T22:03:40.263Z,22.45
2022-08-24T22:06:38.068Z,22.44
2022-08-24T22:09:35.552Z,22.46
2022-08-24T22:12:35.856Z,22.46
2022-08-24T22:15:33.901Z,22.46
2022-08-24T22:18:31.366Z,22.46
2022-08-24T22:21:29.434Z,22.45
2022-08-24T22:24:26.918Z,22.45
2022-08-24T22:27:25.087Z,22.46
2022-08-24T22:30:22.838Z,22.46
2022-08-24T22:33:20.501Z,22.46
2022-08-24T22:36:18.002Z,22.48
2022-08-24T22:39:15.462Z,22.47
2022-08-24T22:42:12.979Z,22.49
2022-08-24T22:45:10.501Z,22.49
2022-08-24T22:48:07.991Z,22.50
2022-08-24T22:51:05.489Z,22.50
2022-08-24T22:54:02.958Z,22.52
2022-08-24T22:57:00.431Z,22.53
2022-08-24T22:59:57.948Z,22.55
2022-08-24T23:02:55.422Z,22.55
2022-08-24T23:05:52.914Z,22.55
2022-08-24T23:08:50.370Z,22.52
2022-08-24T23:11:47.845Z,22.53
2022-08-24T23:14:45.314Z,22.55
2022-08-24T23:17:43.794Z,22.54
2022-08-24T23:20:41.414Z,22.53
2022-08-24T23:23:39.226Z,22.52
2022-08-24T23:26:36.711Z,22.52
2022-08-24T23:29:34.177Z,22.52
2022-08-24T23:32:31.680Z,22.51
2022-08-24T23:35:29.511Z,22.50
2022-08-24T23:38:27.002Z,22.49
2022-08-24T23:41:26.079Z,22.49
2022-08-24T23:44:23.561Z,22.48
2022-08-24T23:47:21.108Z,22.47
2022-08-24T23:50:18.852Z,22.48
2022-08-24T23:53:16.678Z,22.47
2022-08-24T23:56:14.216Z,22.46
2022-08-24T23:59:11.687Z,22.46
